Time;durP1;ratioP1;P1;durP2;ratioP2;P2;SDS_P1;SDS_P2;PMS_P1;PMS_P2;Temp;Humidity;BMP_temperature;BMP_pressure;BME280_temperature;BME280_humidity;BME280_pressure;Samples;Min_cycle;Max_cycle;Signal;HPM_P1;HPM_P2
2021/04/01 00:01:14;;;;;;;53.73;32.28;;;;;;;2.49;61.97;99699.41;1737305;81;24430;-72
2021/04/01 00:03:47;;;;;;;48.80;30.02;;;;;;;2.45;62.13;99700.74;1726737;81;21657;-72
2021/04/01 00:06:15;;;;;;;55.17;31.68;;;;;;;2.42;62.31;99699.50;1725853;82;21221;-70
2021/04/01 00:08:42;;;;;;;63.68;34.03;;;;;;;2.43;62.38;99699.06;1734159;82;21076;-70
2021/04/01 00:11:12;;;;;;;48.78;31.35;;;;;;;2.43;62.40;99698.62;1727845;81;21260;-71
2021/04/01 00:13:39;;;;;;;50.73;29.18;;;;;;;2.43;62.52;99688.31;1730116;81;21239;-72
2021/04/01 00:16:06;;;;;;;47.08;29.72;;;;;;;2.43;62.62;99683.16;1728557;82;21160;-72
2021/04/01 00:18:34;;;;;;;50.30;30.40;;;;;;;2.47;62.69;99686.56;1726203;81;21673;-72
2021/04/01 00:21:02;;;;;;;60.17;32.35;;;;;;;2.52;62.74;99676.16;1728053;82;21175;-72
2021/04/01 00:23:30;;;;;;;52.78;29.98;;;;;;;2.57;62.85;99674.38;1727290;82;21160;-72
2021/04/01 00:25:57;;;;;;;50.80;28.32;;;;;;;2.60;62.87;99673.87;1732157;82;21221;-72
2021/04/01 00:28:24;;;;;;;54.45;28.30;;;;;;;2.63;62.95;99669.11;1726411;81;21215;-73
2021/04/01 00:30:51;;;;;;;44.67;25.68;;;;;;;2.68;63.07;99667.32;1732225;82;21029;-72
2021/04/01 00:33:18;;;;;;;44.45;24.67;;;;;;;2.74;63.09;99664.63;1732389;81;21621;-73
2021/04/01 00:35:45;;;;;;;39.78;23.42;;;;;;;2.77;63.15;99659.42;1729653;80;21667;-73
2021/04/01 00:38:12;;;;;;;41.68;26.27;;;;;;;2.84;63.26;99653.75;1726506;81;21314;-73
2021/04/01 00:40:39;;;;;;;39.80;24.98;;;;;;;2.89;63.24;99645.50;1727664;81;21245;-72
2021/04/01 00:43:05;;;;;;;45.55;25.90;;;;;;;2.94;63.34;99638.54;1728656;81;21184;-72
2021/04/01 00:45:32;;;;;;;39.65;25.70;;;;;;;3.00;63.35;99635.00;1731650;81;21168;-73
2021/04/01 00:47:59;;;;;;;47.10;28.17;;;;;;;3.06;63.38;99638.75;1729459;81;21620;-73
2021/04/01 00:50:30;;;;;;;44.05;26.10;;;;;;;3.13;63.36;99634.72;1729294;82;21420;-73
2021/04/01 00:52:58;;;;;;;43.50;26.25;;;;;;;3.20;63.50;99640.64;1727359;82;21460;-73
2021/04/01 00:55:26;;;;;;;41.95;25.50;;;;;;;3.27;63.42;99633.63;1724636;82;21192;-73
2021/04/01 00:57:57;;;;;;;43.38;27.42;;;;;;;3.34;63.48;99643.81;1726379;82;21795;-73
2021/04/01 01:00:28;;;;;;;44.03;26.20;;;;;;;3.40;63.48;99642.00;1727516;82;21284;-72
2021/04/01 01:02:53;;;;;;;46.77;27.70;;;;;;;3.47;63.65;99643.56;1755495;80;21280;-72
2021/04/01 01:05:23;;;;;;;39.08;26.00;;;;;;;3.52;63.69;99640.00;1732083;81;21249;-72
2021/04/01 01:07:51;;;;;;;48.98;26.57;;;;;;;3.59;63.74;99639.02;1742754;79;21203;-72
2021/04/01 01:10:31;;;;;;;45.17;26.55;;;;;;;3.66;63.79;99648.77;1739771;81;21197;-73
2021/04/01 01:13:01;;;;;;;36.45;25.12;;;;;;;3.69;63.78;99637.08;1743374;80;21191;-71
2021/04/01 01:15:29;;;;;;;41.45;25.90;;;;;;;3.70;63.80;99641.39;1741138;80;21238;-71
2021/04/01 01:17:57;;;;;;;44.98;25.62;;;;;;;3.69;63.82;99642.25;1744231;81;21567;-71
2021/04/01 01:20:28;;;;;;;;;;;;;;;3.70;63.94;99631.06;1751327;79;21203;-71
2021/04/01 01:22:55;;;;;;;41.00;25.20;;;;;;;3.67;64.10;99626.38;1747105;81;20240;-71
2021/04/01 01:25:22;;;;;;;39.98;26.10;;;;;;;3.65;64.08;99620.41;1758986;80;21188;-71
2021/04/01 01:27:49;;;;;;;41.40;25.88;;;;;;;3.65;64.15;99611.38;1755390;80;21659;-71
2021/04/01 01:30:20;;;;;;;44.58;25.68;;;;;;;3.65;64.20;99612.22;1760634;80;21145;-71
2021/04/01 01:32:56;;;;;;;45.55;27.20;;;;;;;3.65;64.18;99610.93;1756912;80;20995;-71
2021/04/01 01:35:31;;;;;;;39.70;26.00;;;;;;;3.67;64.31;99618.22;1756879;80;21195;-71
2021/04/01 01:38:08;;;;;;;40.88;26.73;;;;;;;3.78;64.38;99609.80;1798781;78;22785;-71
2021/04/01 01:40:37;;;;;;;39.88;25.50;;;;;;;3.80;64.28;99609.30;1769441;80;21053;-72
2021/04/01 01:43:10;;;;;;;40.55;25.85;;;;;;;3.92;64.32;99609.92;1765241;80;21193;-72
2021/04/01 01:45:39;;;;;;;39.35;24.23;;;;;;;4.02;64.39;99601.09;1766142;80;21161;-72
2021/04/01 01:48:07;;;;;;;46.30;26.33;;;;;;;4.06;64.55;99597.54;1764197;80;21105;-72
2021/04/01 01:50:38;;;;;;;46.42;26.65;;;;;;;4.04;64.47;99599.33;1770431;79;21107;-72
2021/04/01 01:53:07;;;;;;;41.35;26.05;;;;;;;4.03;64.47;99602.78;1764048;80;21034;-72
2021/04/01 01:55:36;;;;;;;41.55;26.45;;;;;;;4.00;64.52;99603.69;1768625;80;21369;-73
2021/04/01 01:58:04;;;;;;;47.60;26.20;;;;;;;4.00;64.59;99591.22;1738011;81;21063;-73
2021/04/01 02:00:48;;;;;;;40.80;25.37;;;;;;;4.00;64.64;99595.10;1709905;82;21141;-73
2021/04/01 02:03:15;;;;;;;43.33;26.35;;;;;;;4.04;64.69;99591.58;1709178;82;21172;-72
2021/04/01 02:05:43;;;;;;;42.35;24.95;;;;;;;4.07;64.76;99585.05;1706411;82;21168;-72
2021/04/01 02:08:11;;;;;;;;;;;;;;;4.09;64.85;99582.00;1711577;82;21438;-71
2021/04/01 02:10:43;;;;;;;39.92;26.05;;;;;;;4.11;65.08;99577.62;1708866;82;20287;-71
2021/04/01 02:13:12;;;;;;;46.80;27.42;;;;;;;4.13;65.02;99578.44;1714161;82;21155;-71
2021/04/01 02:15:42;;;;;;;44.00;24.23;;;;;;;4.12;64.83;99585.80;1707656;82;21211;-72
2021/04/01 02:18:19;;;;;;;46.48;27.30;;;;;;;4.13;64.97;99582.77;1710729;82;21264;-71
2021/04/01 02:20:49;;;;;;;45.78;26.68;;;;;;;4.10;65.06;99575.93;1708993;82;22292;-71
2021/04/01 02:23:26;;;;;;;43.85;26.75;;;;;;;4.07;65.11;99574.72;1715352;82;21171;-71
2021/04/01 02:25:55;;;;;;;39.80;25.27;;;;;;;4.03;65.13;99575.65;1705383;82;21701;-72
2021/04/01 02:28:26;;;;;;;41.88;28.40;;;;;;;4.01;65.25;99573.57;1714009;82;21176;-72
2021/04/01 02:30:56;;;;;;;48.38;30.92;;;;;;;3.99;65.34;99572.75;1707229;82;21212;-72
2021/04/01 02:33:27;;;;;;;54.25;32.83;;;;;;;3.95;65.36;99572.39;1690683;82;21262;-72
2021/04/01 02:35:55;;;;;;;48.55;27.35;;;;;;;3.92;65.44;99564.71;1703749;82;21715;-72
2021/04/01 02:38:22;;;;;;;;;;;;;;;3.94;65.47;99569.41;1710458;82;21224;-72
2021/04/01 02:40:50;;;;;;;43.85;26.80;;;;;;;3.99;65.52;99567.13;1718794;82;20139;-72
2021/04/01 02:43:30;;;;;;;49.38;27.35;;;;;;;4.11;65.53;99567.28;1710414;82;21127;-72
2021/04/01 02:45:51;;;;;;;40.63;25.15;;;;;;;4.21;65.50;99564.90;1712037;82;21196;-72
2021/04/01 02:48:18;;;;;;;37.67;24.90;;;;;;;4.34;65.42;99554.25;1710934;82;21243;-72
2021/04/01 02:50:46;;;;;;;37.30;24.43;;;;;;;4.46;65.41;99556.11;1708003;83;21139;-72
2021/04/01 02:53:12;;;;;;;39.23;26.05;;;;;;;4.55;65.51;99552.44;1709452;83;21140;-72
2021/04/01 02:55:39;;;;;;;41.55;26.48;;;;;;;4.57;65.45;99549.83;1707635;82;21221;-72
2021/04/01 02:58:07;;;;;;;41.30;24.60;;;;;;;4.54;65.51;99549.88;1705081;83;21264;-72
2021/04/01 03:00:35;;;;;;;34.18;21.57;;;;;;;4.49;65.52;99551.30;1708221;83;21693;-73
2021/04/01 03:03:10;;;;;;;39.15;22.95;;;;;;;4.42;65.55;99548.45;1708398;83;21549;-72
2021/04/01 03:05:32;;;;;;;37.30;22.75;;;;;;;4.33;65.63;99542.23;1709032;82;21633;-73
2021/04/01 03:07:58;;;;;;;36.42;22.25;;;;;;;4.25;65.68;99541.11;1710863;82;21207;-72
2021/04/01 03:10:25;;;;;;;36.00;21.68;;;;;;;4.22;65.71;99536.87;1721833;81;22701;-72
2021/04/01 03:12:52;;;;;;;40.00;23.75;;;;;;;4.20;65.83;99530.03;1739184;81;21201;-72
2021/04/01 03:15:20;;;;;;;46.10;25.48;;;;;;;4.16;65.90;99520.22;1710714;82;21193;-72
2021/04/01 03:17:47;;;;;;;41.37;25.32;;;;;;;4.12;65.97;99514.73;1703538;82;21140;-72
2021/04/01 03:20:14;;;;;;;35.95;23.47;;;;;;;4.09;66.08;99519.98;1713679;83;21233;-72
2021/04/01 03:22:42;;;;;;;34.43;22.75;;;;;;;4.07;66.07;99517.87;1734747;81;21603;-72
2021/04/01 03:25:11;;;;;;;38.15;24.77;;;;;;;4.10;66.04;99513.92;1709958;83;22448;-73
2021/04/01 03:27:39;;;;;;;38.28;23.77;;;;;;;4.17;66.07;99512.90;1711424;83;21271;-72
2021/04/01 03:30:11;;;;;;;38.88;22.05;;;;;;;4.25;66.05;99508.36;1709565;83;21643;-72
2021/04/01 03:32:43;;;;;;;39.05;22.82;;;;;;;4.32;66.18;99510.81;1712502;83;21225;-71
2021/04/01 03:35:14;;;;;;;39.67;22.60;;;;;;;4.32;66.19;99503.06;1736107;81;22241;-71
2021/04/01 03:37:42;;;;;;;37.08;22.45;;;;;;;4.30;66.21;99507.41;1734334;81;21398;-71
2021/04/01 03:40:10;;;;;;;56.28;26.65;;;;;;;4.24;66.26;99498.92;1733419;81;21114;-72
2021/04/01 03:42:38;;;;;;;39.23;23.83;;;;;;;4.23;66.31;99503.70;1732016;81;21480;-71
2021/04/01 03:45:09;;;;;;;43.75;23.98;;;;;;;4.21;66.42;99496.41;1736570;81;21613;-72
2021/04/01 03:47:38;;;;;;;44.48;24.15;;;;;;;4.17;66.47;99487.05;1729907;81;21216;-72
2021/04/01 03:50:08;;;;;;;46.42;24.63;;;;;;;4.15;66.54;99491.41;1709611;83;21209;-72
2021/04/01 03:52:35;;;;;;;41.60;24.52;;;;;;;4.15;66.61;99487.53;1738289;81;21180;-71
2021/04/01 03:55:11;;;;;;;37.45;23.40;;;;;;;4.15;66.67;99488.82;1734063;81;21708;-71
2021/04/01 03:57:31;;;;;;;49.70;24.30;;;;;;;4.15;66.74;99490.56;1733729;81;21235;-72
2021/04/01 04:16:03;;;;;;;43.42;24.55;;;;;;;4.45;66.80;99481.16;1767746;80;21155;-71
2021/04/01 04:18:29;;;;;;;64.67;26.10;;;;;;;4.60;66.86;99469.13;1765738;80;21054;-71
2021/04/01 04:20:56;;;;;;;63.15;26.48;;;;;;;4.67;66.77;99463.33;1769062;79;21121;-71
2021/04/01 04:23:24;;;;;;;85.00;27.35;;;;;;;4.71;66.83;99465.80;1770063;80;21614;-71
2021/04/01 04:25:54;;;;;;;103.80;29.60;;;;;;;4.71;66.84;99463.67;1768227;80;21057;-71
2021/04/01 04:28:26;;;;;;;109.32;28.30;;;;;;;4.68;66.92;99458.14;1769536;80;21076;-71
2021/04/01 04:30:49;;;;;;;113.22;28.55;;;;;;;4.70;66.99;99461.53;1765616;80;21177;-72
2021/04/01 04:33:16;;;;;;;103.10;29.98;;;;;;;4.70;66.98;99460.24;1765139;80;21265;-72
2021/04/01 04:35:42;;;;;;;105.35;30.77;;;;;;;4.69;67.05;99453.80;1764581;80;21138;-71
2021/04/01 04:38:09;;;;;;;163.80;35.50;;;;;;;4.67;67.09;99443.94;1764213;80;21001;-71
2021/04/01 04:40:37;;;;;;;185.73;36.90;;;;;;;4.60;67.08;99445.02;1770856;80;21632;-71
2021/04/01 04:43:03;;;;;;;188.30;38.10;;;;;;;4.57;67.09;99442.06;1764084;79;21211;-71
2021/04/01 04:45:31;;;;;;;193.82;45.50;;;;;;;4.52;67.19;99440.05;1763634;79;21374;-72
2021/04/01 04:47:57;;;;;;;274.10;52.17;;;;;;;4.48;67.29;99438.41;1765719;80;21156;-72
2021/04/01 04:50:24;;;;;;;293.95;50.45;;;;;;;4.51;67.33;99437.06;1769455;80;21084;-72
2021/04/01 04:52:51;;;;;;;250.53;49.95;;;;;;;4.49;67.38;99433.22;1768299;80;21060;-72
2021/04/01 04:55:19;;;;;;;240.10;45.78;;;;;;;4.47;67.37;99438.02;1764485;80;21283;-72
2021/04/01 04:57:52;;;;;;;185.18;42.25;;;;;;;4.47;67.46;99430.27;1771358;80;21311;-72
2021/04/01 05:00:48;;;;;;;84.10;31.75;;;;;;;4.53;67.56;99424.92;1769463;80;21570;-72
2021/04/01 05:05:42;;;;;;;48.73;26.77;;;;;;;4.89;67.53;99427.38;1767498;78;21191;-73
2021/04/01 05:08:09;;;;;;;83.67;30.02;;;;;;;5.14;67.37;99425.76;1770279;78;21158;-73
2021/04/01 05:10:36;;;;;;;67.05;29.82;;;;;;;5.38;67.34;99425.93;1764792;78;21148;-73
2021/04/01 05:15:31;;;;;;;89.97;31.40;;;;;;;5.84;67.27;99419.28;1768156;78;21240;-73
2021/04/01 05:20:35;;;;;;;188.37;38.80;;;;;;;6.37;67.24;99416.65;1795530;78;23045;-71
2021/04/01 05:23:08;;;;;;;195.22;39.80;;;;;;;6.34;66.92;99418.05;1768807;79;21005;-72
2021/04/01 05:25:32;;;;;;;176.30;38.13;;;;;;;6.26;66.96;99413.58;1767269;79;21141;-72
2021/04/01 05:28:06;;;;;;;273.50;47.78;;;;;;;6.20;67.07;99411.20;1767286;80;21061;-72
2021/04/01 05:30:27;;;;;;;233.63;46.08;;;;;;;6.16;67.02;99419.97;1768391;79;21243;-73
2021/04/01 05:32:54;;;;;;;217.13;46.50;;;;;;;6.10;67.05;99409.81;1769468;80;21060;-72
2021/04/01 05:35:22;;;;;;;210.68;44.35;;;;;;;6.07;67.21;99415.11;1769707;80;21014;-73
2021/04/01 05:37:50;;;;;;;240.72;45.50;;;;;;;6.09;67.36;99409.43;1771439;80;22378;-73
2021/04/01 05:40:18;;;;;;;178.20;41.70;;;;;;;6.18;67.47;99407.81;1767660;80;21619;-73
2021/04/01 05:42:48;;;;;;;137.30;37.08;;;;;;;6.22;67.26;99402.94;1715011;82;20988;-73
2021/04/01 05:47:51;;;;;;;143.78;34.73;;;;;;;6.34;67.45;99403.80;1710734;83;21695;-73
2021/04/01 05:54:07;;;;;;;121.82;34.67;;;;;;;6.48;67.30;99388.59;1735919;81;21752;-72
2021/04/01 06:04:40;;;;;;;107.07;36.42;;;;;;;7.50;67.54;99379.55;1742148;79;22836;-72
2021/04/01 06:07:17;;;;;;;100.07;38.10;;;;;;;7.73;67.34;99380.78;1720848;81;21052;-71
2021/04/01 06:09:50;;;;;;;84.87;36.55;;;;;;;7.98;67.32;99383.64;1692075;82;21258;-72
2021/04/01 06:12:17;;;;;;;106.55;37.98;;;;;;;8.27;67.08;99385.86;1723487;81;21084;-73
2021/04/01 06:15:07;;;;;;;65.00;32.13;;;;;;;8.53;67.15;99386.50;1712793;81;21082;-72
2021/04/01 06:17:34;;;;;;;74.87;32.75;;;;;;;8.65;66.66;99369.03;1712080;82;21049;-78
2021/04/01 06:20:06;;;;;;;72.35;33.65;;;;;;;8.70;66.63;99368.84;1717401;82;21076;-78
2021/04/01 06:22:34;;;;;;;77.92;33.00;;;;;;;8.81;66.68;99375.70;1710308;81;21214;-80
2021/04/01 06:25:00;;;;;;;;;;;;;;;9.02;66.72;99376.48;1718244;81;21053;-78
2021/04/01 06:30:28;;;;;;;102.82;34.63;;;;;;;9.40;66.65;99380.34;1774137;78;22151;-76
2021/04/01 06:33:05;;;;;;;75.65;30.02;;;;;;;9.52;66.43;99383.68;1744485;80;21220;-77
2021/04/01 06:35:40;;;;;;;80.42;31.93;;;;;;;9.61;66.19;99372.80;1738259;80;21433;-77
2021/04/01 06:40:52;;;;;;;97.45;32.85;;;;;;;9.84;66.25;99378.64;1740384;81;21294;-79
2021/04/01 06:43:30;;;;;;;74.32;31.62;;;;;;;10.13;66.47;99381.55;1741933;81;21086;-77
2021/04/01 06:46:00;;;;;;;80.28;31.35;;;;;;;10.38;66.04;99384.61;1745121;81;21127;-77
2021/04/01 06:54:15;;;;;;;87.67;29.95;;;;;;;10.68;65.71;99383.94;1795178;78;22601;-77
2021/04/01 06:59:26;;;;;;;76.97;26.52;;;;;;;10.83;65.44;99385.72;1773327;78;22242;-78
2021/04/01 07:01:59;;;;;;;50.28;24.57;;;;;;;10.86;65.20;99389.94;1769633;79;21010;-79
2021/04/01 07:04:26;;;;;;;48.40;23.10;;;;;;;11.00;64.68;99397.03;1764382;78;21064;-78
2021/04/01 07:06:58;;;;;;;33.10;18.05;;;;;;;10.98;64.45;99408.42;1770723;80;21215;-78
2021/04/01 07:15:01;;;;;;;45.73;23.92;;;;;;;10.98;63.82;99397.97;1783378;78;23104;-72
2021/04/01 07:45:08;;;;;;;31.52;19.62;;;;;;;12.10;62.26;99380.38;1753805;80;21210;-76
2021/04/01 07:47:29;;;;;;;29.85;17.17;;;;;;;12.52;62.01;99399.70;1746902;80;21550;-75
2021/04/01 07:49:58;;;;;;;36.75;20.27;;;;;;;12.87;58.10;99400.63;1738442;80;21174;-73
2021/04/01 07:52:32;;;;;;;30.77;19.37;;;;;;;12.58;58.24;99399.33;1752592;79;21206;-73
2021/04/01 07:55:26;;;;;;;30.82;18.32;;;;;;;12.38;57.99;99395.30;1748562;80;22775;-75
2021/04/01 08:05:25;;;;;;;27.05;16.85;;;;;;;12.50;58.93;99384.54;1693828;83;21155;-73
2021/04/01 08:10:47;;;;;;;28.40;16.12;;;;;;;12.41;55.56;99383.80;1832905;77;22086;-77
2021/04/01 08:13:15;;;;;;;24.65;14.93;;;;;;;12.39;57.62;99388.27;1800977;77;21138;-75
2021/04/01 08:15:50;;;;;;;30.50;17.40;;;;;;;12.12;53.74;99393.36;1802708;79;22311;-76
2021/04/01 08:18:28;;;;;;;25.43;17.48;;;;;;;12.00;55.54;99394.93;1803933;79;21230;-77
2021/04/01 08:21:00;;;;;;;33.58;18.90;;;;;;;11.91;55.85;99393.69;1803812;78;21100;-76
2021/04/01 08:23:36;;;;;;;27.05;16.73;;;;;;;11.86;56.73;99390.02;1805126;79;21260;-80
2021/04/01 08:26:23;;;;;;;27.90;17.85;;;;;;;12.04;57.09;99391.19;1806419;77;21563;-78
2021/04/01 08:34:18;;;;;;;38.83;23.80;;;;;;;11.97;56.12;99398.56;1743223;81;20999;-77
2021/04/01 08:36:50;;;;;;;33.60;22.55;;;;;;;11.93;55.49;99375.27;1770073;80;21148;-75
2021/04/01 08:39:20;;;;;;;35.60;21.62;;;;;;;11.93;55.49;99375.27;1739776;80;21599;-77
2021/04/01 08:42:11;;;;;;;34.23;22.52;;;;;;;12.09;55.78;99397.00;1723696;81;21214;-77
2021/04/01 08:48:09;;;;;;;27.82;19.40;;;;;;;12.20;56.25;99408.98;1747503;80;21192;-77
2021/04/01 08:50:44;;;;;;;28.07;20.00;;;;;;;12.11;56.18;99415.24;1739469;80;21198;-78
2021/04/01 08:53:59;;;;;;;27.37;19.87;;;;;;;11.86;56.43;99417.49;1729590;81;21199;-78
2021/04/01 08:56:43;;;;;;;25.32;16.62;;;;;;;11.75;57.02;99421.16;1741121;81;21250;-77
2021/04/01 08:59:37;;;;;;;23.60;16.87;;;;;;;11.56;56.79;99406.13;1743343;80;21218;-76
2021/04/01 09:02:10;;;;;;;27.15;17.02;;;;;;;11.38;56.99;99420.61;1742233;80;22517;-76
2021/04/01 09:04:37;;;;;;;25.90;19.15;;;;;;;10.91;57.38;99430.56;1741768;81;21815;-76
2021/04/01 09:07:10;;;;;;;25.20;18.15;;;;;;;10.79;57.90;99437.75;1740016;80;21175;-74
2021/04/01 09:09:38;;;;;;;33.13;21.70;;;;;;;10.79;57.90;99437.75;1730291;82;21972;-73
2021/04/01 09:15:06;;;;;;;34.48;23.15;;;;;;;10.21;58.97;99445.45;1764139;79;22561;-73
2021/04/01 09:17:36;;;;;;;33.80;24.07;;;;;;;9.84;59.31;99445.14;1761527;80;21131;-73
2021/04/01 09:20:20;;;;;;;39.03;25.25;;;;;;;9.67;59.29;99446.41;1758314;80;21364;-74
2021/04/01 09:22:57;;;;;;;39.20;23.85;;;;;;;9.64;59.23;99440.42;1738823;80;21014;-73
2021/04/01 09:25:46;;;;;;;42.65;26.77;;;;;;;9.77;59.77;99434.60;1733104;79;21108;-73
2021/04/01 09:28:14;;;;;;;42.80;27.52;;;;;;;9.75;59.57;99418.21;1698024;82;21067;-74
2021/04/01 09:32:02;;;;;;;39.58;26.65;;;;;;;9.91;59.98;99431.33;1798578;77;22305;-73
2021/04/01 09:34:32;;;;;;;42.73;27.93;;;;;;;10.08;60.77;99437.41;1768063;80;21649;-72
2021/04/01 09:37:13;;;;;;;39.30;27.00;;;;;;;10.04;60.51;99435.86;1746950;80;21633;-73
2021/04/01 09:39:41;;;;;;;43.17;29.42;;;;;;;9.98;60.73;99446.60;1770884;80;21199;-74
2021/04/01 09:42:15;;;;;;;40.20;27.07;;;;;;;9.85;60.70;99446.81;1773320;80;21211;-74
2021/04/01 09:44:57;;;;;;;44.42;27.50;;;;;;;9.72;60.82;99444.41;1770137;79;21242;-74
2021/04/01 09:47:37;;;;;;;37.48;27.13;;;;;;;9.53;61.20;99468.76;1776657;79;21045;-73
2021/04/01 09:50:14;;;;;;;36.90;26.25;;;;;;;9.38;62.39;99468.16;1773158;79;21116;-74
2021/04/01 09:52:58;;;;;;;46.68;26.90;;;;;;;9.24;62.05;99479.67;1775263;80;21044;-74
2021/04/01 09:55:34;;;;;;;38.35;26.93;;;;;;;9.17;62.18;99479.95;1774322;80;21063;-73
2021/04/01 09:58:07;;;;;;;40.45;26.87;;;;;;;8.99;66.21;99492.52;1775721;79;21214;-73
2021/04/01 10:03:18;;;;;;;30.82;20.20;;;;;;;8.19;67.39;99491.97;1776391;79;21348;-74
2021/04/01 10:05:47;;;;;;;29.75;21.07;;;;;;;7.80;67.90;99523.02;1774450;80;21083;-73
2021/04/01 10:08:28;;;;;;;20.62;13.83;;;;;;;7.59;67.94;99529.91;1771019;78;21263;-73
2021/04/01 10:11:09;;;;;;;13.48;10.53;;;;;;;7.44;66.06;99540.86;1777044;79;21138;-73
2021/04/01 10:13:36;;;;;;;10.30;7.20;;;;;;;7.17;65.96;99520.21;1763922;79;21137;-72
2021/04/01 10:16:08;;;;;;;9.98;7.15;;;;;;;6.84;66.92;99545.16;1772319;79;22171;-72
2021/04/01 10:18:37;;;;;;;10.98;8.08;;;;;;;6.52;68.28;99544.10;1766661;78;21611;-74
2021/04/01 10:21:10;;;;;;;13.48;7.12;;;;;;;6.22;70.02;99533.86;1778919;79;21633;-74
2021/04/01 10:26:42;;;;;;;9.95;6.78;;;;;;;5.89;73.43;99554.72;1768712;78;23400;-73
2021/04/01 10:29:10;;;;;;;8.15;5.20;;;;;;;5.64;71.91;99571.91;1747607;80;20953;-73
2021/04/01 10:31:51;;;;;;;7.17;4.67;;;;;;;5.54;71.04;99543.66;1745151;80;21574;-73
2021/04/01 10:34:53;;;;;;;6.33;4.05;;;;;;;5.38;71.02;99563.16;1746245;80;21065;-74
2021/04/01 10:37:23;;;;;;;5.95;3.40;;;;;;;5.28;70.66;99565.59;1746254;80;21617;-73
2021/04/01 10:39:51;;;;;;;5.78;3.95;;;;;;;5.18;72.01;99565.44;1749664;80;21781;-74
2021/04/01 10:42:28;;;;;;;6.87;4.50;;;;;;;5.10;71.38;99570.39;1745941;80;21183;-74
2021/04/01 10:44:59;;;;;;;8.48;5.30;;;;;;;5.00;73.00;99572.81;1750265;80;21847;-74
2021/04/01 10:47:50;;;;;;;7.83;4.60;;;;;;;4.89;71.63;99578.72;1749823;80;21658;-74
2021/04/01 10:50:20;;;;;;;6.72;4.30;;;;;;;4.96;71.21;99563.45;1748843;80;21034;-74
2021/04/01 10:52:50;;;;;;;5.75;4.42;;;;;;;4.88;70.90;99571.86;1750476;80;21127;-71
2021/04/01 10:55:17;;;;;;;7.25;4.58;;;;;;;4.93;70.20;99577.77;1753400;80;21203;-72
2021/04/01 10:57:44;;;;;;;6.53;4.70;;;;;;;4.87;71.29;99574.89;1750389;80;21197;-73
2021/04/01 11:00:14;;;;;;;4.83;3.92;;;;;;;4.75;71.19;99589.87;1735507;80;21204;-73
2021/04/01 11:02:51;;;;;;;7.08;3.62;;;;;;;4.52;72.05;99587.42;1745834;80;21064;-73
2021/04/01 11:05:20;;;;;;;6.55;3.20;;;;;;;4.40;74.11;99613.59;1723704;81;22226;-73
2021/04/01 11:07:52;;;;;;;4.78;3.40;;;;;;;4.25;72.02;99606.57;1745119;80;21254;-73
2021/04/01 11:10:25;;;;;;;3.80;3.00;;;;;;;4.19;72.54;99598.97;1744315;80;22361;-73
2021/04/01 11:12:59;;;;;;;5.42;3.00;;;;;;;4.18;73.86;99605.03;1745797;80;21264;-73
2021/04/01 11:15:41;;;;;;;3.27;2.20;;;;;;;4.18;72.18;99617.95;1741875;80;21187;-73
2021/04/01 11:18:17;;;;;;;3.50;2.40;;;;;;;4.12;75.95;99607.77;1743832;80;21289;-72
2021/04/01 11:20:51;;;;;;;3.98;2.70;;;;;;;4.00;74.67;99602.41;1745894;80;21261;-72
2021/04/01 11:23:25;;;;;;;7.42;2.35;;;;;;;3.93;73.56;99615.52;1747751;80;21209;-73
2021/04/01 11:25:57;;;;;;;3.40;2.40;;;;;;;3.90;74.11;99624.62;1751499;80;21285;-73
2021/04/01 11:28:41;;;;;;;2.83;1.70;;;;;;;3.88;75.51;99623.80;1742361;80;21069;-72
2021/04/01 11:31:12;;;;;;;2.52;1.55;;;;;;;3.79;75.07;99641.19;1747669;80;21172;-73
2021/04/01 11:33:39;;;;;;;3.33;1.30;;;;;;;3.71;74.70;99648.24;1744164;80;21146;-73
2021/04/01 11:36:13;;;;;;;2.00;1.42;;;;;;;3.71;73.15;99645.66;1741678;80;22249;-73
2021/04/01 11:38:45;;;;;;;4.75;1.77;;;;;;;3.71;73.87;99648.24;1725638;80;21589;-72
2021/04/01 11:41:22;;;;;;;3.70;1.25;;;;;;;3.70;75.03;99632.34;1744529;80;21174;-72
2021/04/01 11:43:55;;;;;;;3.27;1.32;;;;;;;3.67;74.62;99649.20;1746293;80;21186;-73
2021/04/01 11:46:26;;;;;;;3.58;1.25;;;;;;;3.60;74.82;99647.61;1743379;80;21211;-72
2021/04/01 11:48:56;;;;;;;3.58;1.22;;;;;;;3.58;77.20;99646.78;1742685;80;21550;-74
2021/04/01 11:51:30;;;;;;;2.50;1.10;;;;;;;3.58;74.09;99660.98;1739120;80;21121;-71
2021/04/01 11:53:58;;;;;;;2.12;1.12;;;;;;;3.54;77.18;99671.81;1746594;81;21147;-69
2021/04/01 11:56:33;;;;;;;;;;;;;;;3.46;74.74;99658.65;1746122;80;21167;-69
2021/04/01 11:59:16;;;;;;;3.08;0.90;;;;;;;3.45;75.83;99665.99;1748014;80;20619;-70
2021/04/01 12:04:36;;;;;;;3.58;1.20;;;;;;;3.45;75.68;99665.99;1826233;76;22749;-69
2021/04/01 12:07:04;;;;;;;3.55;1.47;;;;;;;3.46;77.23;99665.10;1794485;79;21210;-79
2021/04/01 12:09:32;;;;;;;3.90;1.50;;;;;;;3.42;77.88;99679.80;1794631;77;21186;-69
2021/04/01 12:11:59;;;;;;;2.50;1.30;;;;;;;3.34;75.36;99669.62;1795309;79;21986;-71
2021/04/01 12:14:38;;;;;;;3.45;1.30;;;;;;;3.36;75.36;99667.87;1797650;77;21101;-71
2021/04/01 12:17:07;;;;;;;5.35;1.90;;;;;;;3.36;75.58;99683.35;1791413;79;21238;-71
2021/04/01 12:19:34;;;;;;;2.60;1.10;;;;;;;3.28;76.10;99687.80;1792417;79;21109;-71
2021/04/01 12:22:10;;;;;;;1.40;0.98;;;;;;;3.18;76.45;99680.25;1795780;78;21298;-71
2021/04/01 12:24:37;;;;;;;4.37;1.07;;;;;;;3.16;76.82;99677.68;1791248;79;21084;-71
2021/04/01 12:27:05;;;;;;;3.72;1.10;;;;;;;3.11;76.03;99685.97;1794906;77;21077;-70
2021/04/01 12:29:36;;;;;;;2.20;1.00;;;;;;;3.13;75.26;99681.61;1734063;81;21218;-71
2021/04/01 12:32:04;;;;;;;4.75;1.17;;;;;;;3.17;75.13;99671.66;1729472;81;21177;-71
2021/04/01 12:34:32;;;;;;;3.87;1.05;;;;;;;3.19;74.90;99690.52;1732003;81;22112;-70
2021/04/01 12:37:03;;;;;;;1.42;0.70;;;;;;;3.20;77.64;99681.92;1743020;80;21195;-70
2021/04/01 12:39:34;;;;;;;2.27;0.90;;;;;;;3.15;76.22;99688.89;1746080;80;21219;-70
2021/04/01 12:42:03;;;;;;;1.45;0.68;;;;;;;3.07;76.45;99686.88;1732969;81;21197;-70
2021/04/01 12:44:43;;;;;;;4.90;1.15;;;;;;;3.06;76.50;99694.22;1733053;80;21235;-71
2021/04/01 12:47:13;;;;;;;1.65;0.70;;;;;;;3.06;75.12;99681.31;1740227;80;21202;-71
2021/04/01 12:49:40;;;;;;;2.58;0.80;;;;;;;3.05;75.35;99692.49;1743448;80;21243;-70
2021/04/01 12:52:09;;;;;;;3.33;0.95;;;;;;;3.07;75.19;99688.17;1743248;80;21239;-70
2021/04/01 12:54:39;;;;;;;2.65;1.15;;;;;;;3.09;75.26;99694.16;1736704;80;21219;-70
2021/04/01 12:57:09;;;;;;;1.55;0.80;;;;;;;3.07;75.11;99690.75;1734581;82;21210;-70
2021/04/01 12:59:40;;;;;;;3.95;1.02;;;;;;;3.02;75.89;99695.13;1733709;80;21223;-69
2021/04/01 13:04:54;;;;;;;2.80;1.10;;;;;;;2.98;76.18;99696.07;1791246;78;22412;-69
2021/04/01 13:09:47;;;;;;;2.17;0.98;;;;;;;2.88;76.69;99687.17;1770637;80;21197;-69
2021/04/01 13:12:19;;;;;;;2.67;0.75;;;;;;;2.86;77.12;99688.95;1762780;79;21156;-69
2021/04/01 13:14:47;;;;;;;2.33;0.93;;;;;;;2.88;78.39;99711.67;1764062;79;21080;-70
2021/04/01 13:17:16;;;;;;;2.00;0.93;;;;;;;2.92;77.30;99702.19;1767557;80;21096;-71
2021/04/01 13:19:43;;;;;;;2.22;1.00;;;;;;;2.98;76.26;99695.63;1763244;79;21060;-69
2021/04/01 13:22:25;;;;;;;3.30;0.75;;;;;;;2.95;77.43;99715.47;1763786;80;21216;-71
2021/04/01 13:27:24;;;;;;;4.05;0.90;;;;;;;2.88;77.73;99720.70;1768365;79;21723;-70
2021/04/01 13:29:52;;;;;;;2.17;0.90;;;;;;;2.85;76.84;99718.17;1766652;80;21258;-71
2021/04/01 13:34:57;;;;;;;1.98;1.10;;;;;;;2.89;77.03;99715.98;1769865;80;21202;-70
2021/04/01 13:39:52;;;;;;;1.62;1.10;;;;;;;2.88;76.65;99725.86;1769049;80;21930;-71
2021/04/01 13:45:20;;;;;;;3.33;1.30;;;;;;;2.93;76.69;99718.50;1797325;77;22561;-71
2021/04/01 13:47:55;;;;;;;2.98;1.10;;;;;;;2.87;77.04;99738.35;1773628;79;21200;-72
2021/04/01 13:50:23;;;;;;;2.70;1.60;;;;;;;2.84;78.53;99733.24;1769348;79;21593;-71
2021/04/01 13:55:29;;;;;;;2.70;1.75;;;;;;;2.84;76.97;99735.83;1770405;80;21068;-71
2021/04/01 14:11:28;;;;;;;2.27;0.70;;;;;;;2.76;77.94;99732.51;1772446;80;26757;-71
2021/04/01 14:13:56;;;;;;;4.78;1.27;;;;;;;2.78;78.81;99735.92;1773530;80;23418;-73
2021/04/01 14:16:23;;;;;;;2.62;0.88;;;;;;;2.80;78.00;99744.50;1764559;80;21202;-74